Latest Coastal Weather Observations for Wadeye (Port Keats)

IDD60701

Issued at 3:41 am CST Tuesday 7 July 2015 (issued every 10 minutes, with the page automatically refreshed every 10 minutes)

About coastal observations | Map of coastal stations | Coastal observations for NT | Marine services | Other Formats
Station Details ID: 014948 Name: PORT KEATS AIRPORT Lat: -14.25 Lon: 129.53 Height: 28.0 m
Data from the previous 72 hours. | See also: Recent months at Wadeye (Port Keats)
Date/Time
CST
Temp

°C
Wind Pressure Rain
since 9am
mm
Weather Cloud Vis
km
Sea
Height
m
Swell
Dir
 
Speed
knots
Gust
knots
hPa Trend Height
m
Period
s
Dir
07/03:30am 21.9 CALM 0 0 1011.8 - 0.0 - - - - - - -
07/03:00am 22.1 CALM 0 0 1011.8 - 0.0 - - - - - - -
07/02:30am 22.4 CALM 0 0 1012.0 - 0.0 - - - - - - -
07/02:00am 22.4 CALM 0 0 1012.3 - 0.0 - - - - - - -
07/01:30am 22.5 W 3 4 1012.5 - 0.0 - - - - - - -
07/01:00am 23.1 CALM 0 3 1012.6 - 0.0 - - - - - - -
07/12:30am 23.2 ENE 3 5 1012.6 - 0.0 - - - - - - -
07/12:00am 23.2 NNE 5 7 1012.6 - 0.0 - - - - - - -
 
Date/Time
CST
Temp

°C
Wind Pressure Rain
since 9am
mm
Weather Cloud Vis
km
Sea
Height
m
Swell
Dir
 
Speed
knots
Gust
knots
hPa Trend Height
m
Period
s
Dir
06/11:30pm 23.7 CALM 0 3 1012.5 - 0.0 - - - - - - -
06/11:00pm 23.7 CALM 0 1 1012.5 - 0.0 - - - - - - -
06/10:30pm 23.4 SSW 3 4 1012.5 - 0.0 - - - - - - -
06/10:00pm 23.6 S 4 5 1012.6 - 0.0 - - - - - - -
06/09:30pm 23.4 S 2 5 1012.7 - 0.0 - - - - - - -
06/09:00pm 23.6 CALM 0 0 1012.6 - 0.0 - - - - - - -
06/08:30pm 23.8 CALM 0 0 1012.3 - 0.0 - - - - - - -
06/08:00pm 23.9 SSW 3 5 1012.2 - 0.0 - - - - - - -
06/07:30pm 24.2 SW 1 3 1012.0 - 0.0 - - - - - - -
06/07:00pm 24.5 WSW 3 6 1011.7 - 0.0 - - - - - - -
06/06:30pm 25.1 WSW 4 6 1011.4 - 0.0 - - - - - - -
06/06:00pm 25.6 WSW 6 9 1011.2 - 0.0 - - - - - - -
06/05:30pm 26.5 W 6 10 1011.0 - 0.0 - - - - - - -
06/05:00pm 27.8 W 7 11 1010.9 - 0.0 - - - - - - -
06/04:30pm 28.4 W 6 9 1010.9 - 0.0 - - - - - - -
06/04:00pm 28.4 WSW 7 12 1010.9 - 0.0 - - - - - - -
06/03:30pm 28.2 W 9 14 1010.9 - 0.0 - - - - - - -
06/03:00pm 29.0 W 9 13 1010.9 - 0.0 - - - - - - -
06/02:30pm 30.6 E 5 10 1011.2 - 0.0 - - - - - - -
06/02:00pm 30.8 ENE 7 9 1011.6 - 0.0 - - - - - - -
06/01:30pm 30.0 ENE 6 10 1012.3 - 0.0 - - - - - - -
06/01:00pm 29.6 NE 5 11 1012.8 - 0.0 - - - - - - -
06/12:30pm 28.3 N 7 12 1013.3 - 0.0 - - - - - - -
06/12:00pm 28.6 NNE 8 14 1013.7 - 0.0 - - - - - - -
06/11:30am 27.2 NNE 9 12 1014.1 - 0.0 - - - - - - -
06/11:00am 27.4 NE 10 13 1014.4 - 0.0 - - - - - - -
06/10:30am 26.8 ENE 8 14 1014.5 - 0.0 - - - - - - -
06/10:00am 27.0 E 7 11 1014.7 - 0.0 - - - - - - -
06/09:30am 25.6 ESE 7 9 1014.5 - 0.0 - - - - - - -
06/09:00am 24.6 SE 5 7 1014.4 - 0.0 - - - - - - -
06/08:30am 21.5 SW 2 3 1014.0 - 0.0 - - - - - - -
06/08:00am 19.0 SSE 4 5 1013.5 - 0.0 - - - - - - -
06/07:30am 21.8 SE 7 9 1013.2 - 0.0 - - - - - - -
06/07:00am 22.0 SE 7 9 1013.0 - 0.0 - - - - - - -
06/06:30am 22.2 SE 8 13 1012.7 - 0.0 - - - - - - -
06/06:00am 19.0 SSE 5 6 1012.4 - 0.0 - - - - - - -
06/05:30am 18.2 SSE 5 6 1012.4 - 0.0 - - - - - - -
06/05:00am 19.3 SSE 4 5 1012.3 - 0.0 - - - - - - -
06/04:30am 19.9 SSE 5 7 1012.1 - 0.0 - - - - - - -
06/04:00am 20.1 S 5 7 1012.0 - 0.0 - - - - - - -
06/03:30am 20.1 S 5 8 1012.1 - 0.0 - - - - - - -
06/03:00am 20.0 S 5 8 1012.3 - 0.0 - - - - - - -
06/02:30am 20.8 S 6 8 1012.5 - 0.0 - - - - - - -
06/02:00am 20.5 S 5 8 1012.5 - 0.0 - - - - - - -
06/01:30am 21.1 S 5 7 1012.6 - 0.0 - - - - - - -
06/01:00am 20.6 S 5 6 1012.8 - 0.0 - - - - - - -
06/12:30am 21.7 S 7 9 1012.6 - 0.0 - - - - - - -
06/12:00am 19.0 S 5 6 1013.0 - 0.0 - - - - - - -
 
Date/Time
CST
Temp

°C
Wind Pressure Rain
since 9am
mm
Weather Cloud Vis
km
Sea
Height
m
Swell
Dir
 
Speed
knots
Gust
knots
hPa Trend Height
m
Period
s
Dir
05/11:30pm 17.9 S 1 3 1013.4 - 0.0 - - - - - - -
05/11:00pm 19.8 SSE 3 4 1013.4 - 0.0 - - - - - - -
05/10:30pm 21.2 S 4 6 1013.5 - 0.0 - - - - - - -
05/10:00pm 20.8 SSW 5 7 1013.6 - 0.0 - - - - - - -
05/09:30pm 20.8 SSW 5 7 1013.8 - 0.0 - - - - - - -
05/09:00pm 21.1 SSW 4 6 1013.7 - 0.0 - - - - - - -
05/08:30pm 21.1 SSW 4 6 1013.5 - 0.0 - - - - - - -
05/08:00pm 22.4 SSW 4 7 1013.2 - 0.0 - - - - - - -
05/07:30pm 22.5 SSW 5 6 1013.0 - 0.0 - - - - - - -
05/07:00pm 23.3 SW 3 4 1012.8 - 0.0 - - - - - - -
05/06:30pm 25.5 SSW 4 6 1012.6 - 0.0 - - - - - - -
05/06:00pm 27.3 SSW 5 7 1012.4 - 0.0 - - - - - - -
05/05:30pm 28.2 SW 6 10 1012.2 - 0.0 - - - - - - -
05/05:00pm 28.6 SW 7 10 1012.1 - 0.0 - - - - - - -
05/04:30pm 29.3 SW 7 10 1012.1 - 0.0 - - - - - - -
05/04:00pm 30.2 W 5 7 1012.1 - 0.0 - - - - - - -
05/03:30pm 30.4 NW 8 11 1012.4 - 0.0 - - - - - - -
05/03:00pm 30.5 NW 8 10 1012.6 - 0.0 - - - - - - -
05/02:30pm 30.9 NNW 7 12 1012.9 - 0.0 - - - - - - -
05/02:00pm 31.0 SW 4 7 1013.4 - 0.0 - - - - - - -
05/01:30pm 30.1 S 5 7 1013.9 - 0.0 - - - - - - -
05/01:00pm 28.9 SSE 5 8 1014.4 - 0.0 - - - - - - -
05/12:30pm 28.4 SE 7 11 1014.9 - 0.0 - - - - - - -
05/12:00pm 27.9 ESE 7 13 1015.3 - 0.0 - - - - - - -
05/11:30am 27.4 SE 9 14 1015.4 - 0.0 - - - - - - -
05/11:00am 26.7 SE 9 13 1015.7 - 0.0 - - - - - - -
05/10:30am 25.5 SE 11 15 1015.9 - 0.0 - - - - - - -
05/10:00am 24.0 SE 11 15 1015.9 - 0.0 - - - - - - -
05/09:30am 23.2 SE 11 16 1016.1 - 0.0 - - - - - - -
05/09:00am 22.6 SE 9 13 1015.9 - 0.0 - - - - - - -
05/08:30am 21.9 SE 9 14 1015.8 - 0.0 - - - - - - -
05/08:00am 21.1 SSE 10 13 1015.6 - 0.0 - - - - - - -
05/07:30am 20.5 SSE 9 12 1015.3 - 0.0 - - - - - - -
05/07:00am 20.3 SSE 10 13 1014.9 - 0.0 - - - - - - -
05/06:30am 20.4 SE 9 12 1014.8 - 0.0 - - - - - - -
05/06:00am 19.8 SE 8 10 1014.5 - 0.0 - - - - - - -
05/05:30am 20.2 SE 7 10 1014.3 - 0.0 - - - - - - -
05/05:00am 20.7 SSE 9 11 1013.7 - 0.0 - - - - - - -
05/04:30am 21.1 SSE 10 14 1013.6 - 0.0 - - - - - - -
05/04:00am 20.3 SSE 8 12 1013.5 - 0.0 - - - - - - -
05/03:30am 20.8 SE 8 11 1013.6 - 0.0 - - - - - - -
05/03:00am 19.0 SSE 6 8 1013.9 - 0.0 - - - - - - -
05/02:30am 20.0 SSE 6 9 1013.9 - 0.0 - - - - - - -
05/02:00am 18.2 SSE 6 9 1013.8 - 0.0 - - - - - - -
05/01:30am 18.1 SSE 5 6 1013.9 - 0.0 - - - - - - -
05/01:00am 17.7 S 4 6 1014.0 - 0.0 - - - - - - -
05/12:30am 18.4 SSE 5 6 1014.0 - 0.0 - - - - - - -
05/12:00am 18.8 SSE 6 7 1014.0 - 0.0 - - - - - - -
 
Date/Time
CST
Temp

°C
Wind Pressure Rain
since 9am
mm
Weather Cloud Vis
km
Sea
Height
m
Swell
Dir
 
Speed
knots
Gust
knots
hPa Trend Height
m
Period
s
Dir
04/11:30pm 18.8 SSE 5 7 1014.1 - 0.0 - - - - - - -
04/11:00pm 21.7 SE 6 7 1014.2 - 0.0 - - - - - - -
04/10:30pm 19.3 SE 6 7 1014.2 - 0.0 - - - - - - -
04/10:00pm 19.0 SSE 5 7 1014.0 - 0.0 - - - - - - -
04/09:30pm 19.9 SSE 4 5 1014.0 - 0.0 - - - - - - -
04/09:00pm 20.5 SSE 4 6 1013.8 - 0.0 - - - - - - -
04/08:30pm 22.2 SSE 4 5 1013.5 - 0.0 - - - - - - -
04/08:00pm 22.8 S 4 6 1013.1 - 0.0 - - - - - - -
04/07:30pm 24.0 S 5 7 1012.7 - 0.0 - - - - - - -
04/07:00pm 24.8 S 5 6 1012.5 - 0.0 - - - - - - -
04/06:30pm 26.1 S 4 7 1012.3 - 0.0 - - - - - - -
04/06:00pm 27.4 S 5 9 1012.0 - 0.0 - - - - - - -
04/05:30pm 28.1 S 6 10 1011.8 - 0.0 - - - - - - -
04/05:00pm 28.5 S 8 13 1011.8 - 0.0 - - - - - - -
04/04:30pm 29.5 S 8 12 1011.8 - 0.0 - - - - - - -
04/04:00pm 29.4 S 9 14 1011.8 - 0.0 - - - - - - -
04/03:30pm 29.5 SSE 9 17 1012.1 - 0.0 - - - - - - -
04/03:00pm 29.8 S 8 14 1012.4 - 0.0 - - - - - - -
04/02:30pm 29.5 S 8 15 1012.9 - 0.0 - - - - - - -
04/02:00pm 29.0 S 9 14 1013.3 - 0.0 - - - - - - -
04/01:30pm 28.8 SSE 9 13 1013.6 - 0.0 - - - - - - -
04/01:00pm 28.9 SSE 9 13 1014.1 - 0.0 - - - - - - -
04/12:30pm 28.5 SSE 8 15 1014.6 - 0.0 - - - - - - -
04/12:00pm 28.3 ESE 9 15 1015.1 - 0.0 - - - - - - -
04/11:30am 27.5 ESE 11 14 1015.5 - 0.0 - - - - - - -
04/11:00am 27.3 ESE 9 16 1016.0 - 0.0 - - - - - - -
04/10:30am 26.0 ESE 11 17 1016.4 - 0.0 - - - - - - -
04/10:00am 24.5 ESE 14 19 1016.6 - 0.0 - - - - - - -
04/09:30am 24.0 ESE 9 14 1016.8 - 0.0 - - - - - - -
04/09:00am 23.0 SE 8 11 1016.7 - 0.0 - - - - - - -
04/08:30am 22.0 SE 8 11 1016.3 - 0.0 - - - - - - -
04/08:00am 21.1 SE 7 10 1015.8 - 0.0 - - - - - - -
04/07:30am 20.7 SE 8 11 1015.5 - 0.0 - - - - - - -
04/07:00am 21.1 SE 8 11 1015.2 - 0.0 - - - - - - -
04/06:30am 20.3 SE 6 8 1014.9 - 0.0 - - - - - - -
04/06:00am 19.1 SSE 4 6 1014.8 - 0.0 - - - - - - -
04/05:30am 18.4 S 3 5 1014.7 - 0.0 - - - - - - -
04/05:00am 18.2 S 4 6 1014.3 - 0.0 - - - - - - -
04/04:30am 20.3 SE 5 7 1014.1 - 0.0 - - - - - - -
04/04:00am 19.7 SSE 5 6 1014.3 - 0.0 - - - - - - -

Other Formats:

Comma delimited format used in spreadsheet applications
http://www.bom.gov.au/fwo/IDD60701/IDD60701.95111.axf

JavaScript Object Notation format (JSON) in row-major order
http://www.bom.gov.au/fwo/IDD60701/IDD60701.95111.json